sensor_id;sensor_type;location;lat;lon;timestamp;P1;durP1;ratioP1;P2;durP2;ratioP2
20320;SDS011;10318;47.674;9.052;2022-10-16T00:01:48;6.78;;;1.48;;
20320;SDS011;10318;47.674;9.052;2022-10-16T00:04:14;9.95;;;1.52;;
20320;SDS011;10318;47.674;9.052;2022-10-16T00:06:46;6.85;;;1.77;;
20320;SDS011;10318;47.674;9.052;2022-10-16T00:09:12;12.25;;;2.08;;
20320;SDS011;10318;47.674;9.052;2022-10-16T00:11:39;6.63;;;2.47;;
20320;SDS011;10318;47.674;9.052;2022-10-16T00:14:08;3.65;;;2.33;;
20320;SDS011;10318;47.674;9.052;2022-10-16T00:16:35;14.73;;;2.83;;
20320;SDS011;10318;47.674;9.052;2022-10-16T00:19:02;5.70;;;2.90;;
20320;SDS011;10318;47.674;9.052;2022-10-16T00:21:29;7.40;;;4.38;;
20320;SDS011;10318;47.674;9.052;2022-10-16T00:23:57;12.90;;;5.15;;
20320;SDS011;10318;47.674;9.052;2022-10-16T00:26:26;8.32;;;4.60;;
20320;SDS011;10318;47.674;9.052;2022-10-16T00:28:53;6.65;;;3.67;;
20320;SDS011;10318;47.674;9.052;2022-10-16T00:31:20;10.40;;;4.72;;
20320;SDS011;10318;47.674;9.052;2022-10-16T00:33:47;6.93;;;3.75;;
20320;SDS011;10318;47.674;9.052;2022-10-16T00:36:15;8.30;;;3.55;;
20320;SDS011;10318;47.674;9.052;2022-10-16T00:38:41;10.25;;;2.40;;
20320;SDS011;10318;47.674;9.052;2022-10-16T00:41:14;8.43;;;2.10;;
20320;SDS011;10318;47.674;9.052;2022-10-16T00:43:48;4.57;;;2.15;;
20320;SDS011;10318;47.674;9.052;2022-10-16T00:48:42;7.88;;;1.80;;
20320;SDS011;10318;47.674;9.052;2022-10-16T00:51:11;7.47;;;2.03;;
20320;SDS011;10318;47.674;9.052;2022-10-16T00:53:37;12.38;;;1.90;;
20320;SDS011;10318;47.674;9.052;2022-10-16T00:56:04;2.53;;;1.48;;
20320;SDS011;10318;47.674;9.052;2022-10-16T00:58:31;3.80;;;1.70;;
20320;SDS011;10318;47.674;9.052;2022-10-16T01:00:57;3.20;;;1.60;;
20320;SDS011;10318;47.674;9.052;2022-10-16T01:03:29;4.82;;;1.55;;
20320;SDS011;10318;47.674;9.052;2022-10-16T01:08:37;3.80;;;1.40;;
20320;SDS011;10318;47.674;9.052;2022-10-16T01:11:17;3.33;;;1.58;;
20320;SDS011;10318;47.674;9.052;2022-10-16T01:13:46;12.07;;;1.75;;
20320;SDS011;10318;47.674;9.052;2022-10-16T01:19:07;3.92;;;1.90;;
20320;SDS011;10318;47.674;9.052;2022-10-16T01:21:36;6.60;;;1.60;;
20320;SDS011;10318;47.674;9.052;2022-10-16T01:24:17;7.43;;;1.92;;
20320;SDS011;10318;47.674;9.052;2022-10-16T01:27:06;5.55;;;1.88;;
20320;SDS011;10318;47.674;9.052;2022-10-16T01:37:46;9.13;;;1.77;;
20320;SDS011;10318;47.674;9.052;2022-10-16T01:40:15;7.28;;;1.80;;
20320;SDS011;10318;47.674;9.052;2022-10-16T01:42:47;2.97;;;1.70;;
20320;SDS011;10318;47.674;9.052;2022-10-16T01:45:15;7.15;;;2.13;;
20320;SDS011;10318;47.674;9.052;2022-10-16T01:47:44;10.35;;;2.47;;
20320;SDS011;10318;47.674;9.052;2022-10-16T01:50:12;10.07;;;2.00;;
20320;SDS011;10318;47.674;9.052;2022-10-16T01:52:41;8.75;;;2.83;;
20320;SDS011;10318;47.674;9.052;2022-10-16T01:55:10;5.47;;;2.20;;
20320;SDS011;10318;47.674;9.052;2022-10-16T01:57:40;5.55;;;2.67;;
20320;SDS011;10318;47.674;9.052;2022-10-16T02:00:09;8.95;;;3.10;;
20320;SDS011;10318;47.674;9.052;2022-10-16T02:02:40;6.47;;;3.05;;
20320;SDS011;10318;47.674;9.052;2022-10-16T02:05:14;6.15;;;2.75;;
20320;SDS011;10318;47.674;9.052;2022-10-16T02:07:42;6.13;;;2.75;;
20320;SDS011;10318;47.674;9.052;2022-10-16T02:10:09;7.60;;;3.33;;
20320;SDS011;10318;47.674;9.052;2022-10-16T02:12:37;11.10;;;3.72;;
20320;SDS011;10318;47.674;9.052;2022-10-16T02:15:06;11.68;;;3.70;;
20320;SDS011;10318;47.674;9.052;2022-10-16T02:17:33;8.63;;;4.40;;
20320;SDS011;10318;47.674;9.052;2022-10-16T02:19:59;9.82;;;4.30;;
20320;SDS011;10318;47.674;9.052;2022-10-16T02:22:37;11.57;;;4.93;;
20320;SDS011;10318;47.674;9.052;2022-10-16T02:25:06;13.15;;;5.10;;
20320;SDS011;10318;47.674;9.052;2022-10-16T02:32:43;14.32;;;5.88;;
20320;SDS011;10318;47.674;9.052;2022-10-16T02:35:11;17.42;;;6.05;;
20320;SDS011;10318;47.674;9.052;2022-10-16T02:37:38;20.42;;;6.15;;
20320;SDS011;10318;47.674;9.052;2022-10-16T02:40:07;12.65;;;5.25;;
20320;SDS011;10318;47.674;9.052;2022-10-16T02:42:35;11.77;;;5.85;;
20320;SDS011;10318;47.674;9.052;2022-10-16T02:45:03;12.75;;;5.40;;
20320;SDS011;10318;47.674;9.052;2022-10-16T02:47:30;9.82;;;5.53;;
20320;SDS011;10318;47.674;9.052;2022-10-16T02:49:56;17.38;;;6.32;;
20320;SDS011;10318;47.674;9.052;2022-10-16T02:52:23;19.15;;;6.50;;
20320;SDS011;10318;47.674;9.052;2022-10-16T02:54:50;9.95;;;5.60;;
20320;SDS011;10318;47.674;9.052;2022-10-16T02:57:17;11.77;;;5.78;;
20320;SDS011;10318;47.674;9.052;2022-10-16T02:59:44;11.80;;;6.38;;
20320;SDS011;10318;47.674;9.052;2022-10-16T03:02:11;14.93;;;5.40;;
20320;SDS011;10318;47.674;9.052;2022-10-16T03:04:38;16.95;;;5.47;;
20320;SDS011;10318;47.674;9.052;2022-10-16T03:07:04;15.38;;;6.32;;
20320;SDS011;10318;47.674;9.052;2022-10-16T03:09:31;19.50;;;7.00;;
20320;SDS011;10318;47.674;9.052;2022-10-16T03:11:58;15.65;;;5.93;;
20320;SDS011;10318;47.674;9.052;2022-10-16T03:14:24;11.07;;;6.35;;
20320;SDS011;10318;47.674;9.052;2022-10-16T03:16:51;14.00;;;5.40;;
20320;SDS011;10318;47.674;9.052;2022-10-16T03:19:17;8.45;;;5.88;;
20320;SDS011;10318;47.674;9.052;2022-10-16T03:21:44;11.45;;;5.53;;
20320;SDS011;10318;47.674;9.052;2022-10-16T03:24:11;14.48;;;5.95;;
20320;SDS011;10318;47.674;9.052;2022-10-16T03:26:38;12.93;;;5.40;;
20320;SDS011;10318;47.674;9.052;2022-10-16T03:29:04;10.05;;;5.03;;
20320;SDS011;10318;47.674;9.052;2022-10-16T03:31:31;9.70;;;5.10;;
20320;SDS011;10318;47.674;9.052;2022-10-16T03:33:58;15.75;;;5.60;;
20320;SDS011;10318;47.674;9.052;2022-10-16T03:36:24;12.60;;;5.22;;
20320;SDS011;10318;47.674;9.052;2022-10-16T03:38:51;8.77;;;5.50;;
20320;SDS011;10318;47.674;9.052;2022-10-16T03:41:18;12.05;;;5.70;;
20320;SDS011;10318;47.674;9.052;2022-10-16T03:43:44;11.65;;;5.30;;
20320;SDS011;10318;47.674;9.052;2022-10-16T03:46:11;11.77;;;6.10;;
20320;SDS011;10318;47.674;9.052;2022-10-16T03:48:38;7.63;;;5.15;;
20320;SDS011;10318;47.674;9.052;2022-10-16T03:51:06;11.65;;;5.70;;
20320;SDS011;10318;47.674;9.052;2022-10-16T03:53:32;13.98;;;5.88;;
20320;SDS011;10318;47.674;9.052;2022-10-16T03:55:59;19.20;;;6.10;;
20320;SDS011;10318;47.674;9.052;2022-10-16T03:58:26;14.68;;;5.78;;
20320;SDS011;10318;47.674;9.052;2022-10-16T04:00:53;16.48;;;6.32;;
20320;SDS011;10318;47.674;9.052;2022-10-16T04:03:19;12.77;;;5.50;;
20320;SDS011;10318;47.674;9.052;2022-10-16T04:05:47;14.60;;;5.45;;
20320;SDS011;10318;47.674;9.052;2022-10-16T04:08:14;8.23;;;5.25;;
20320;SDS011;10318;47.674;9.052;2022-10-16T04:10:42;9.00;;;5.10;;
20320;SDS011;10318;47.674;9.052;2022-10-16T04:13:09;12.00;;;5.07;;
20320;SDS011;10318;47.674;9.052;2022-10-16T04:15:35;15.90;;;5.57;;
20320;SDS011;10318;47.674;9.052;2022-10-16T04:18:02;9.90;;;5.05;;
20320;SDS011;10318;47.674;9.052;2022-10-16T04:20:29;16.25;;;5.30;;
20320;SDS011;10318;47.674;9.052;2022-10-16T04:22:56;8.57;;;4.93;;
20320;SDS011;10318;47.674;9.052;2022-10-16T04:25:22;15.32;;;5.70;;
20320;SDS011;10318;47.674;9.052;2022-10-16T04:27:49;11.63;;;5.10;;
20320;SDS011;10318;47.674;9.052;2022-10-16T04:30:16;7.65;;;4.75;;
20320;SDS011;10318;47.674;9.052;2022-10-16T04:32:42;8.23;;;4.95;;
20320;SDS011;10318;47.674;9.052;2022-10-16T04:35:09;6.80;;;5.50;;
20320;SDS011;10318;47.674;9.052;2022-10-16T04:37:36;7.65;;;4.68;;
20320;SDS011;10318;47.674;9.052;2022-10-16T04:40:02;9.18;;;4.80;;
20320;SDS011;10318;47.674;9.052;2022-10-16T04:42:29;16.98;;;5.47;;
20320;SDS011;10318;47.674;9.052;2022-10-16T04:44:56;27.58;;;5.53;;
20320;SDS011;10318;47.674;9.052;2022-10-16T04:47:22;10.63;;;4.90;;
20320;SDS011;10318;47.674;9.052;2022-10-16T04:49:49;10.30;;;5.03;;
20320;SDS011;10318;47.674;9.052;2022-10-16T04:52:16;7.32;;;4.80;;
20320;SDS011;10318;47.674;9.052;2022-10-16T04:54:44;8.10;;;4.78;;
20320;SDS011;10318;47.674;9.052;2022-10-16T04:57:11;6.20;;;4.35;;
20320;SDS011;10318;47.674;9.052;2022-10-16T04:59:38;5.57;;;3.92;;
20320;SDS011;10318;47.674;9.052;2022-10-16T05:02:04;7.00;;;4.80;;
20320;SDS011;10318;47.674;9.052;2022-10-16T05:04:32;4.68;;;4.15;;
20320;SDS011;10318;47.674;9.052;2022-10-16T05:06:58;5.40;;;3.72;;
20320;SDS011;10318;47.674;9.052;2022-10-16T05:09:25;4.35;;;3.85;;
20320;SDS011;10318;47.674;9.052;2022-10-16T05:11:52;4.28;;;3.88;;
20320;SDS011;10318;47.674;9.052;2022-10-16T05:14:18;4.95;;;3.47;;
20320;SDS011;10318;47.674;9.052;2022-10-16T05:16:45;7.03;;;4.10;;
20320;SDS011;10318;47.674;9.052;2022-10-16T05:19:13;8.30;;;4.45;;
20320;SDS011;10318;47.674;9.052;2022-10-16T05:21:53;8.75;;;3.42;;
20320;SDS011;10318;47.674;9.052;2022-10-16T05:24:19;4.38;;;3.72;;
20320;SDS011;10318;47.674;9.052;2022-10-16T05:26:46;51.15;;;5.65;;
20320;SDS011;10318;47.674;9.052;2022-10-16T05:29:13;11.43;;;4.45;;
20320;SDS011;10318;47.674;9.052;2022-10-16T05:31:39;9.70;;;4.18;;
20320;SDS011;10318;47.674;9.052;2022-10-16T05:34:06;4.75;;;4.00;;
20320;SDS011;10318;47.674;9.052;2022-10-16T05:36:33;5.80;;;3.92;;
20320;SDS011;10318;47.674;9.052;2022-10-16T05:38:59;5.72;;;3.40;;
20320;SDS011;10318;47.674;9.052;2022-10-16T05:41:26;9.00;;;4.43;;
20320;SDS011;10318;47.674;9.052;2022-10-16T05:43:53;4.60;;;3.70;;
20320;SDS011;10318;47.674;9.052;2022-10-16T05:46:19;5.25;;;4.20;;
20320;SDS011;10318;47.674;9.052;2022-10-16T05:48:46;5.65;;;3.60;;
20320;SDS011;10318;47.674;9.052;2022-10-16T05:51:13;7.70;;;4.25;;
20320;SDS011;10318;47.674;9.052;2022-10-16T05:53:40;7.80;;;3.33;;
20320;SDS011;10318;47.674;9.052;2022-10-16T05:56:08;3.70;;;2.80;;
20320;SDS011;10318;47.674;9.052;2022-10-16T05:58:36;3.95;;;3.45;;
20320;SDS011;10318;47.674;9.052;2022-10-16T06:01:04;7.15;;;2.90;;
20320;SDS011;10318;47.674;9.052;2022-10-16T06:03:31;3.05;;;2.63;;
20320;SDS011;10318;47.674;9.052;2022-10-16T06:05:57;5.00;;;3.50;;
20320;SDS011;10318;47.674;9.052;2022-10-16T06:08:24;9.40;;;2.60;;
20320;SDS011;10318;47.674;9.052;2022-10-16T06:11:01;6.82;;;3.40;;
20320;SDS011;10318;47.674;9.052;2022-10-16T06:13:28;4.80;;;3.65;;
20320;SDS011;10318;47.674;9.052;2022-10-16T06:15:56;3.72;;;3.42;;
20320;SDS011;10318;47.674;9.052;2022-10-16T06:18:23;4.50;;;3.30;;
20320;SDS011;10318;47.674;9.052;2022-10-16T06:20:49;4.75;;;3.22;;
20320;SDS011;10318;47.674;9.052;2022-10-16T06:23:16;12.30;;;4.20;;
20320;SDS011;10318;47.674;9.052;2022-10-16T06:25:43;6.05;;;4.30;;
20320;SDS011;10318;47.674;9.052;2022-10-16T06:28:09;6.40;;;4.68;;
20320;SDS011;10318;47.674;9.052;2022-10-16T06:30:36;5.90;;;5.30;;
20320;SDS011;10318;47.674;9.052;2022-10-16T06:33:02;11.23;;;6.18;;
20320;SDS011;10318;47.674;9.052;2022-10-16T06:35:29;26.80;;;6.80;;
20320;SDS011;10318;47.674;9.052;2022-10-16T06:37:55;10.27;;;5.47;;
20320;SDS011;10318;47.674;9.052;2022-10-16T06:40:22;5.07;;;4.57;;
20320;SDS011;10318;47.674;9.052;2022-10-16T06:42:49;7.30;;;5.22;;
20320;SDS011;10318;47.674;9.052;2022-10-16T06:45:15;8.05;;;6.05;;
20320;SDS011;10318;47.674;9.052;2022-10-16T06:47:42;7.70;;;6.10;;
20320;SDS011;10318;47.674;9.052;2022-10-16T06:50:08;15.73;;;7.25;;
20320;SDS011;10318;47.674;9.052;2022-10-16T06:52:35;9.73;;;6.97;;
20320;SDS011;10318;47.674;9.052;2022-10-16T06:55:02;14.25;;;7.43;;
20320;SDS011;10318;47.674;9.052;2022-10-16T06:57:29;91.50;;;8.88;;
20320;SDS011;10318;47.674;9.052;2022-10-16T06:59:56;8.10;;;5.80;;
20320;SDS011;10318;47.674;9.052;2022-10-16T07:02:22;18.20;;;6.53;;
20320;SDS011;10318;47.674;9.052;2022-10-16T07:04:49;23.70;;;7.35;;
20320;SDS011;10318;47.674;9.052;2022-10-16T07:07:16;8.70;;;6.97;;
20320;SDS011;10318;47.674;9.052;2022-10-16T07:09:42;7.80;;;6.20;;
20320;SDS011;10318;47.674;9.052;2022-10-16T07:12:09;28.92;;;7.78;;
20320;SDS011;10318;47.674;9.052;2022-10-16T07:14:36;21.63;;;6.97;;
20320;SDS011;10318;47.674;9.052;2022-10-16T07:17:02;15.10;;;7.15;;
20320;SDS011;10318;47.674;9.052;2022-10-16T07:19:29;8.10;;;5.97;;
20320;SDS011;10318;47.674;9.052;2022-10-16T07:22:00;7.70;;;5.85;;
20320;SDS011;10318;47.674;9.052;2022-10-16T07:24:27;6.35;;;5.50;;
20320;SDS011;10318;47.674;9.052;2022-10-16T07:26:53;17.15;;;7.13;;
20320;SDS011;10318;47.674;9.052;2022-10-16T07:29:20;17.88;;;7.05;;
20320;SDS011;10318;47.674;9.052;2022-10-16T07:31:48;13.85;;;6.55;;
20320;SDS011;10318;47.674;9.052;2022-10-16T07:34:15;13.73;;;6.38;;
20320;SDS011;10318;47.674;9.052;2022-10-16T07:36:43;10.13;;;6.70;;
20320;SDS011;10318;47.674;9.052;2022-10-16T07:39:10;21.50;;;7.78;;
20320;SDS011;10318;47.674;9.052;2022-10-16T07:41:36;15.13;;;8.25;;
20320;SDS011;10318;47.674;9.052;2022-10-16T07:44:03;35.25;;;7.72;;
20320;SDS011;10318;47.674;9.052;2022-10-16T07:46:30;14.85;;;8.73;;
20320;SDS011;10318;47.674;9.052;2022-10-16T07:48:57;26.00;;;8.00;;
20320;SDS011;10318;47.674;9.052;2022-10-16T07:51:24;17.15;;;8.43;;
20320;SDS011;10318;47.674;9.052;2022-10-16T07:53:51;14.13;;;8.70;;
20320;SDS011;10318;47.674;9.052;2022-10-16T07:56:19;12.95;;;9.10;;
20320;SDS011;10318;47.674;9.052;2022-10-16T07:58:46;15.70;;;9.43;;
20320;SDS011;10318;47.674;9.052;2022-10-16T08:01:13;25.30;;;9.02;;
20320;SDS011;10318;47.674;9.052;2022-10-16T08:03:41;19.42;;;9.15;;
20320;SDS011;10318;47.674;9.052;2022-10-16T08:06:08;23.52;;;8.93;;
20320;SDS011;10318;47.674;9.052;2022-10-16T08:08:35;46.15;;;10.27;;
20320;SDS011;10318;47.674;9.052;2022-10-16T08:11:02;18.13;;;9.48;;
20320;SDS011;10318;47.674;9.052;2022-10-16T08:13:30;26.95;;;9.52;;
20320;SDS011;10318;47.674;9.052;2022-10-16T08:15:57;25.55;;;9.38;;
20320;SDS011;10318;47.674;9.052;2022-10-16T08:18:24;22.98;;;9.50;;
20320;SDS011;10318;47.674;9.052;2022-10-16T08:20:57;17.48;;;8.55;;
20320;SDS011;10318;47.674;9.052;2022-10-16T08:23:25;39.33;;;9.57;;
20320;SDS011;10318;47.674;9.052;2022-10-16T08:25:55;25.90;;;10.05;;
20320;SDS011;10318;47.674;9.052;2022-10-16T08:28:22;34.38;;;10.15;;
20320;SDS011;10318;47.674;9.052;2022-10-16T08:30:49;21.75;;;9.77;;
20320;SDS011;10318;47.674;9.052;2022-10-16T08:33:16;24.38;;;9.63;;
20320;SDS011;10318;47.674;9.052;2022-10-16T08:35:42;17.40;;;9.55;;
20320;SDS011;10318;47.674;9.052;2022-10-16T08:38:09;13.05;;;9.68;;
20320;SDS011;10318;47.674;9.052;2022-10-16T08:40:36;21.85;;;9.40;;
20320;SDS011;10318;47.674;9.052;2022-10-16T08:43:14;24.15;;;8.55;;
20320;SDS011;10318;47.674;9.052;2022-10-16T08:50:55;21.10;;;10.25;;
20320;SDS011;10318;47.674;9.052;2022-10-16T08:53:56;15.00;;;9.77;;
20320;SDS011;10318;47.674;9.052;2022-10-16T08:56:14;14.98;;;9.15;;
20320;SDS011;10318;47.674;9.052;2022-10-16T08:58:41;13.07;;;9.23;;
20320;SDS011;10318;47.674;9.052;2022-10-16T09:01:13;23.98;;;9.57;;
20320;SDS011;10318;47.674;9.052;2022-10-16T09:04:00;11.45;;;9.23;;
20320;SDS011;10318;47.674;9.052;2022-10-16T09:06:32;18.10;;;9.60;;
20320;SDS011;10318;47.674;9.052;2022-10-16T09:16:36;10.02;;;8.48;;
20320;SDS011;10318;47.674;9.052;2022-10-16T09:21:41;12.05;;;8.90;;
20320;SDS011;10318;47.674;9.052;2022-10-16T09:24:13;14.27;;;9.40;;
20320;SDS011;10318;47.674;9.052;2022-10-16T09:26:40;18.13;;;11.05;;
20320;SDS011;10318;47.674;9.052;2022-10-16T09:29:09;16.17;;;9.48;;
20320;SDS011;10318;47.674;9.052;2022-10-16T09:31:37;18.17;;;9.15;;
20320;SDS011;10318;47.674;9.052;2022-10-16T09:34:04;14.18;;;9.10;;
20320;SDS011;10318;47.674;9.052;2022-10-16T09:36:43;13.23;;;8.27;;
20320;SDS011;10318;47.674;9.052;2022-10-16T09:39:10;9.45;;;8.02;;
20320;SDS011;10318;47.674;9.052;2022-10-16T09:41:41;16.48;;;9.20;;
20320;SDS011;10318;47.674;9.052;2022-10-16T09:44:19;13.70;;;10.48;;
20320;SDS011;10318;47.674;9.052;2022-10-16T09:46:47;12.93;;;9.15;;
20320;SDS011;10318;47.674;9.052;2022-10-16T09:49:19;11.45;;;9.02;;
20320;SDS011;10318;47.674;9.052;2022-10-16T09:51:46;11.85;;;9.63;;
20320;SDS011;10318;47.674;9.052;2022-10-16T09:54:15;9.60;;;8.60;;
20320;SDS011;10318;47.674;9.052;2022-10-16T09:56:42;13.95;;;9.80;;
20320;SDS011;10318;47.674;9.052;2022-10-16T09:59:12;12.95;;;10.35;;
20320;SDS011;10318;47.674;9.052;2022-10-16T10:01:41;9.77;;;8.77;;
20320;SDS011;10318;47.674;9.052;2022-10-16T10:04:08;9.75;;;8.75;;
20320;SDS011;10318;47.674;9.052;2022-10-16T10:06:36;10.00;;;7.65;;
20320;SDS011;10318;47.674;9.052;2022-10-16T10:09:15;10.07;;;8.93;;
20320;SDS011;10318;47.674;9.052;2022-10-16T10:14:14;10.85;;;8.23;;
20320;SDS011;10318;47.674;9.052;2022-10-16T10:16:41;12.27;;;7.60;;
20320;SDS011;10318;47.674;9.052;2022-10-16T10:19:15;8.70;;;7.35;;
20320;SDS011;10318;47.674;9.052;2022-10-16T10:21:42;8.38;;;7.50;;
20320;SDS011;10318;47.674;9.052;2022-10-16T10:24:12;8.55;;;7.40;;
20320;SDS011;10318;47.674;9.052;2022-10-16T10:26:41;11.27;;;7.93;;
20320;SDS011;10318;47.674;9.052;2022-10-16T10:29:28;8.38;;;7.40;;
20320;SDS011;10318;47.674;9.052;2022-10-16T10:32:43;10.00;;;7.50;;
20320;SDS011;10318;47.674;9.052;2022-10-16T10:42:56;9.88;;;7.25;;
20320;SDS011;10318;47.674;9.052;2022-10-16T10:45:44;8.85;;;7.22;;
20320;SDS011;10318;47.674;9.052;2022-10-16T10:50:49;8.82;;;6.57;;
20320;SDS011;10318;47.674;9.052;2022-10-16T10:53:25;6.05;;;4.95;;
20320;SDS011;10318;47.674;9.052;2022-10-16T11:07:04;7.28;;;5.38;;
20320;SDS011;10318;47.674;9.052;2022-10-16T11:09:38;8.70;;;6.07;;
20320;SDS011;10318;47.674;9.052;2022-10-16T11:12:09;10.50;;;5.70;;
20320;SDS011;10318;47.674;9.052;2022-10-16T11:17:39;10.32;;;6.68;;
20320;SDS011;10318;47.674;9.052;2022-10-16T11:20:13;5.85;;;4.93;;
20320;SDS011;10318;47.674;9.052;2022-10-16T11:22:54;10.02;;;5.78;;
20320;SDS011;10318;47.674;9.052;2022-10-16T11:27:52;8.75;;;5.68;;
20320;SDS011;10318;47.674;9.052;2022-10-16T11:30:22;7.40;;;5.50;;
20320;SDS011;10318;47.674;9.052;2022-10-16T11:32:54;9.63;;;6.03;;
20320;SDS011;10318;47.674;9.052;2022-10-16T11:35:25;13.85;;;5.65;;
20320;SDS011;10318;47.674;9.052;2022-10-16T11:37:56;5.85;;;4.90;;
20320;SDS011;10318;47.674;9.052;2022-10-16T11:40:25;5.55;;;3.80;;
20320;SDS011;10318;47.674;9.052;2022-10-16T11:42:55;6.55;;;2.20;;
20320;SDS011;10318;47.674;9.052;2022-10-16T11:47:52;2.97;;;2.25;;
20320;SDS011;10318;47.674;9.052;2022-10-16T11:53:39;5.10;;;2.65;;
20320;SDS011;10318;47.674;9.052;2022-10-16T11:56:11;5.97;;;2.92;;
20320;SDS011;10318;47.674;9.052;2022-10-16T11:58:46;6.15;;;3.25;;
20320;SDS011;10318;47.674;9.052;2022-10-16T12:03:48;4.82;;;3.22;;
20320;SDS011;10318;47.674;9.052;2022-10-16T12:06:23;6.80;;;2.42;;
20320;SDS011;10318;47.674;9.052;2022-10-16T12:08:52;4.15;;;3.75;;
20320;SDS011;10318;47.674;9.052;2022-10-16T12:13:49;4.28;;;2.80;;
20320;SDS011;10318;47.674;9.052;2022-10-16T12:18:43;4.90;;;2.72;;
20320;SDS011;10318;47.674;9.052;2022-10-16T12:21:11;3.97;;;3.22;;
20320;SDS011;10318;47.674;9.052;2022-10-16T12:23:48;7.93;;;4.47;;
20320;SDS011;10318;47.674;9.052;2022-10-16T12:26:26;7.97;;;4.15;;
20320;SDS011;10318;47.674;9.052;2022-10-16T12:28:53;8.93;;;3.83;;
20320;SDS011;10318;47.674;9.052;2022-10-16T12:31:21;4.82;;;3.38;;
20320;SDS011;10318;47.674;9.052;2022-10-16T12:34:14;5.13;;;3.90;;
20320;SDS011;10318;47.674;9.052;2022-10-16T12:36:38;4.25;;;3.10;;
20320;SDS011;10318;47.674;9.052;2022-10-16T12:39:04;5.15;;;2.85;;
20320;SDS011;10318;47.674;9.052;2022-10-16T12:41:35;10.32;;;2.85;;
20320;SDS011;10318;47.674;9.052;2022-10-16T12:44:03;3.33;;;1.95;;
20320;SDS011;10318;47.674;9.052;2022-10-16T12:51:35;8.43;;;4.15;;
20320;SDS011;10318;47.674;9.052;2022-10-16T13:10:08;3.47;;;2.35;;
20320;SDS011;10318;47.674;9.052;2022-10-16T13:18:22;1.58;;;1.42;;
20320;SDS011;10318;47.674;9.052;2022-10-16T13:28:28;3.35;;;1.40;;
20320;SDS011;10318;47.674;9.052;2022-10-16T13:30:56;2.10;;;1.67;;
20320;SDS011;10318;47.674;9.052;2022-10-16T13:33:40;5.63;;;1.75;;
20320;SDS011;10318;47.674;9.052;2022-10-16T13:39:11;2.08;;;1.88;;
20320;SDS011;10318;47.674;9.052;2022-10-16T13:41:39;3.35;;;1.45;;
20320;SDS011;10318;47.674;9.052;2022-10-16T13:44:17;4.13;;;1.67;;
20320;SDS011;10318;47.674;9.052;2022-10-16T13:46:45;3.78;;;2.50;;
20320;SDS011;10318;47.674;9.052;2022-10-16T13:49:14;1.95;;;1.23;;
20320;SDS011;10318;47.674;9.052;2022-10-16T13:51:41;5.60;;;2.75;;
20320;SDS011;10318;47.674;9.052;2022-10-16T13:54:11;4.82;;;1.15;;
20320;SDS011;10318;47.674;9.052;2022-10-16T13:56:38;3.92;;;0.98;;
20320;SDS011;10318;47.674;9.052;2022-10-16T13:59:06;2.80;;;1.05;;
20320;SDS011;10318;47.674;9.052;2022-10-16T14:01:34;4.43;;;1.20;;
20320;SDS011;10318;47.674;9.052;2022-10-16T14:04:05;6.97;;;1.25;;
20320;SDS011;10318;47.674;9.052;2022-10-16T14:06:33;3.83;;;1.15;;
20320;SDS011;10318;47.674;9.052;2022-10-16T14:11:27;5.88;;;1.00;;
20320;SDS011;10318;47.674;9.052;2022-10-16T14:13:55;5.28;;;1.20;;
20320;SDS011;10318;47.674;9.052;2022-10-16T14:16:25;4.68;;;1.20;;
20320;SDS011;10318;47.674;9.052;2022-10-16T14:18:57;2.45;;;0.98;;
20320;SDS011;10318;47.674;9.052;2022-10-16T14:21:25;7.90;;;1.27;;
20320;SDS011;10318;47.674;9.052;2022-10-16T14:23:52;2.17;;;1.40;;
20320;SDS011;10318;47.674;9.052;2022-10-16T14:26:21;4.20;;;1.50;;
20320;SDS011;10318;47.674;9.052;2022-10-16T14:28:48;1.98;;;1.58;;
20320;SDS011;10318;47.674;9.052;2022-10-16T14:31:28;4.85;;;1.48;;
20320;SDS011;10318;47.674;9.052;2022-10-16T14:33:55;5.03;;;1.15;;
20320;SDS011;10318;47.674;9.052;2022-10-16T14:36:22;2.28;;;0.90;;
20320;SDS011;10318;47.674;9.052;2022-10-16T14:39:06;10.27;;;1.25;;
20320;SDS011;10318;47.674;9.052;2022-10-16T14:41:47;11.65;;;1.30;;
20320;SDS011;10318;47.674;9.052;2022-10-16T14:44:14;11.70;;;1.27;;
20320;SDS011;10318;47.674;9.052;2022-10-16T14:46:41;1.80;;;0.82;;
20320;SDS011;10318;47.674;9.052;2022-10-16T14:51:39;2.25;;;0.82;;
20320;SDS011;10318;47.674;9.052;2022-10-16T14:54:15;7.45;;;0.98;;
20320;SDS011;10318;47.674;9.052;2022-10-16T14:59:10;2.80;;;1.20;;
20320;SDS011;10318;47.674;9.052;2022-10-16T15:01:39;7.00;;;1.33;;
20320;SDS011;10318;47.674;9.052;2022-10-16T15:04:07;5.78;;;1.00;;
20320;SDS011;10318;47.674;9.052;2022-10-16T15:06:34;3.22;;;1.10;;
20320;SDS011;10318;47.674;9.052;2022-10-16T15:09:00;5.57;;;2.10;;
20320;SDS011;10318;47.674;9.052;2022-10-16T15:11:27;4.15;;;1.52;;
20320;SDS011;10318;47.674;9.052;2022-10-16T15:13:54;3.17;;;1.90;;
20320;SDS011;10318;47.674;9.052;2022-10-16T15:16:20;2.50;;;1.65;;
20320;SDS011;10318;47.674;9.052;2022-10-16T15:18:47;3.25;;;1.80;;
20320;SDS011;10318;47.674;9.052;2022-10-16T15:21:47;3.75;;;1.70;;
20320;SDS011;10318;47.674;9.052;2022-10-16T15:24:13;14.60;;;1.45;;
20320;SDS011;10318;47.674;9.052;2022-10-16T15:26:46;4.45;;;1.42;;
20320;SDS011;10318;47.674;9.052;2022-10-16T15:29:13;10.23;;;1.35;;
20320;SDS011;10318;47.674;9.052;2022-10-16T15:31:39;11.52;;;1.73;;
20320;SDS011;10318;47.674;9.052;2022-10-16T15:34:09;9.70;;;1.13;;
20320;SDS011;10318;47.674;9.052;2022-10-16T15:36:36;5.38;;;1.50;;
20320;SDS011;10318;47.674;9.052;2022-10-16T15:39:04;10.38;;;1.40;;
20320;SDS011;10318;47.674;9.052;2022-10-16T15:41:31;15.93;;;1.50;;
20320;SDS011;10318;47.674;9.052;2022-10-16T15:43:58;21.90;;;2.10;;
20320;SDS011;10318;47.674;9.052;2022-10-16T15:46:24;9.75;;;1.75;;
20320;SDS011;10318;47.674;9.052;2022-10-16T15:48:51;6.15;;;1.00;;
20320;SDS011;10318;47.674;9.052;2022-10-16T15:51:22;7.50;;;1.05;;
20320;SDS011;10318;47.674;9.052;2022-10-16T15:53:48;6.35;;;1.35;;
20320;SDS011;10318;47.674;9.052;2022-10-16T15:56:17;3.40;;;1.10;;
20320;SDS011;10318;47.674;9.052;2022-10-16T15:58:43;11.20;;;1.20;;
20320;SDS011;10318;47.674;9.052;2022-10-16T16:01:10;5.32;;;1.92;;
20320;SDS011;10318;47.674;9.052;2022-10-16T16:03:38;10.65;;;1.55;;
20320;SDS011;10318;47.674;9.052;2022-10-16T16:06:09;12.73;;;1.17;;
20320;SDS011;10318;47.674;9.052;2022-10-16T16:08:36;3.78;;;1.10;;
20320;SDS011;10318;47.674;9.052;2022-10-16T16:11:07;7.95;;;1.13;;
20320;SDS011;10318;47.674;9.052;2022-10-16T16:13:34;5.70;;;1.42;;
20320;SDS011;10318;47.674;9.052;2022-10-16T16:16:00;4.68;;;1.02;;
20320;SDS011;10318;47.674;9.052;2022-10-16T16:18:27;11.65;;;1.40;;
20320;SDS011;10318;47.674;9.052;2022-10-16T16:20:55;8.70;;;1.23;;
20320;SDS011;10318;47.674;9.052;2022-10-16T16:23:22;4.40;;;1.08;;
20320;SDS011;10318;47.674;9.052;2022-10-16T16:28:30;7.13;;;1.08;;
20320;SDS011;10318;47.674;9.052;2022-10-16T16:30:57;8.27;;;1.92;;
20320;SDS011;10318;47.674;9.052;2022-10-16T16:33:24;5.80;;;1.20;;
20320;SDS011;10318;47.674;9.052;2022-10-16T16:35:55;1.42;;;0.85;;
20320;SDS011;10318;47.674;9.052;2022-10-16T16:38:22;10.57;;;1.05;;
20320;SDS011;10318;47.674;9.052;2022-10-16T16:40:48;5.95;;;1.23;;
20320;SDS011;10318;47.674;9.052;2022-10-16T16:43:27;11.23;;;1.20;;
20320;SDS011;10318;47.674;9.052;2022-10-16T16:45:54;3.70;;;1.10;;
20320;SDS011;10318;47.674;9.052;2022-10-16T16:48:21;2.03;;;0.80;;
20320;SDS011;10318;47.674;9.052;2022-10-16T16:50:47;8.27;;;1.10;;
20320;SDS011;10318;47.674;9.052;2022-10-16T16:53:14;1.63;;;0.80;;
20320;SDS011;10318;47.674;9.052;2022-10-16T16:55:41;7.25;;;0.82;;
20320;SDS011;10318;47.674;9.052;2022-10-16T16:58:08;4.45;;;1.00;;
20320;SDS011;10318;47.674;9.052;2022-10-16T17:00:34;10.45;;;0.95;;